Time;durP1;ratioP1;P1;durP2;ratioP2;P2;SDS_P1;SDS_P2;PMS_P1;PMS_P2;Temp;Humidity;BMP_temperature;BMP_pressure;BME280_temperature;BME280_humidity;BME280_pressure;Samples;Min_cycle;Max_cycle;Signal;HPM_P1;HPM_P2
2023/12/29 00:01:52;;;;;;;12.40;3.33;;;;;;;;;;5027577;28;20057;-63
2023/12/29 00:04:18;;;;;;;12.00;2.87;;;;;;;;;;5028463;28;20132;-63
2023/12/29 00:06:44;;;;;;;15.67;2.93;;;;;;;;;;5027927;28;20067;-63
2023/12/29 00:09:12;;;;;;;10.50;2.30;;;;;;;;;;5028073;28;20420;-63
2023/12/29 00:11:38;;;;;;;15.33;3.63;;;;;;;;;;5027570;28;20057;-63
2023/12/29 00:14:04;;;;;;;14.00;2.80;;;;;;;;;;5028410;28;20045;-63
2023/12/29 00:16:30;;;;;;;21.40;3.60;;;;;;;;;;5031260;28;20041;-63
2023/12/29 00:18:56;;;;;;;20.07;3.30;;;;;;;;;;5031859;28;20132;-64
2023/12/29 00:21:22;;;;;;;22.90;3.40;;;;;;;;;;5032063;28;20046;-64
2023/12/29 00:23:49;;;;;;;16.93;3.30;;;;;;;;;;5031280;28;20056;-64
2023/12/29 00:26:18;;;;;;;20.17;3.20;;;;;;;;;;5032384;28;20136;-64
2023/12/29 00:28:44;;;;;;;14.87;3.30;;;;;;;;;;5032310;28;20056;-64
2023/12/29 00:31:17;;;;;;;17.13;3.87;;;;;;;;;;5032223;28;20057;-63
2023/12/29 00:33:43;;;;;;;16.43;3.20;;;;;;;;;;5031307;28;20041;-64
2023/12/29 00:36:14;;;;;;;21.90;3.30;;;;;;;;;;5032182;28;20046;-63
2023/12/29 00:38:40;;;;;;;14.17;3.97;;;;;;;;;;5031988;28;20060;-64
2023/12/29 00:41:06;;;;;;;24.60;3.97;;;;;;;;;;5032114;28;20049;-64
2023/12/29 00:43:33;;;;;;;22.70;3.70;;;;;;;;;;5031713;28;20057;-64
2023/12/29 00:45:59;;;;;;;17.90;3.37;;;;;;;;;;5031505;28;20046;-64
2023/12/29 00:48:25;;;;;;;17.13;3.40;;;;;;;;;;5031296;28;20060;-64
2023/12/29 00:50:51;;;;;;;17.17;2.80;;;;;;;;;;5031514;28;20041;-64
2023/12/29 00:53:17;;;;;;;22.20;4.90;;;;;;;;;;5032096;28;20057;-64
2023/12/29 00:55:43;;;;;;;15.67;3.80;;;;;;;;;;5031467;28;20068;-65
2023/12/29 00:58:09;;;;;;;25.07;5.30;;;;;;;;;;5031422;28;20045;-65
2023/12/29 01:00:35;;;;;;;26.13;4.47;;;;;;;;;;5031623;28;20111;-65
2023/12/29 01:03:01;;;;;;;20.47;4.70;;;;;;;;;;5031397;28;20052;-65
2023/12/29 01:05:27;;;;;;;26.63;5.43;;;;;;;;;;5031219;28;20060;-65
2023/12/29 01:07:53;;;;;;;20.87;5.00;;;;;;;;;;5029579;28;20503;-65
2023/12/29 01:10:19;;;;;;;17.50;5.47;;;;;;;;;;5031434;28;20053;-64
2023/12/29 01:12:45;;;;;;;30.97;6.70;;;;;;;;;;5031199;28;20050;-65
2023/12/29 01:15:12;;;;;;;20.87;4.40;;;;;;;;;;5031287;28;20058;-65
2023/12/29 01:17:38;;;;;;;26.83;5.63;;;;;;;;;;5030828;28;20045;-64
2023/12/29 01:20:04;;;;;;;21.43;3.90;;;;;;;;;;5030881;28;20045;-65
2023/12/29 01:22:30;;;;;;;21.50;3.90;;;;;;;;;;5030775;28;20160;-65
2023/12/29 01:24:56;;;;;;;18.77;3.80;;;;;;;;;;5031036;28;20457;-65
2023/12/29 01:27:22;;;;;;;17.40;3.83;;;;;;;;;;5029914;28;20045;-65
2023/12/29 01:29:48;;;;;;;23.00;5.27;;;;;;;;;;5030136;28;20054;-65
2023/12/29 01:32:14;;;;;;;16.10;4.20;;;;;;;;;;5031016;28;20054;-64
2023/12/29 01:34:40;;;;;;;21.00;3.63;;;;;;;;;;5031100;28;20061;-65
2023/12/29 01:37:07;;;;;;;19.97;4.47;;;;;;;;;;5030902;28;20057;-64
2023/12/29 01:39:34;;;;;;;18.13;4.00;;;;;;;;;;5030226;28;20102;-64
2023/12/29 01:42:00;;;;;;;18.50;3.50;;;;;;;;;;5030734;28;20139;-64
2023/12/29 01:44:27;;;;;;;14.80;3.37;;;;;;;;;;5030598;28;20092;-64
2023/12/29 01:46:59;;;;;;;13.47;3.37;;;;;;;;;;5029891;28;20053;-65
2023/12/29 01:49:25;;;;;;;18.70;4.70;;;;;;;;;;5029957;28;20080;-65
2023/12/29 01:51:53;;;;;;;17.70;3.57;;;;;;;;;;5030272;28;20033;-64
2023/12/29 01:54:20;;;;;;;16.23;3.63;;;;;;;;;;5030884;28;20095;-65
2023/12/29 01:56:47;;;;;;;23.77;5.40;;;;;;;;;;5030320;28;20042;-65
2023/12/29 01:59:13;;;;;;;19.23;4.20;;;;;;;;;;5031064;28;20077;-64
2023/12/29 02:01:39;;;;;;;17.00;4.03;;;;;;;;;;5030494;28;20099;-64
2023/12/29 02:04:06;;;;;;;17.77;4.70;;;;;;;;;;5029230;28;20053;-65
2023/12/29 02:06:32;;;;;;;18.80;3.57;;;;;;;;;;5030397;28;20386;-64
2023/12/29 02:08:59;;;;;;;19.57;3.90;;;;;;;;;;5030040;28;20069;-64
2023/12/29 02:11:26;;;;;;;19.37;3.77;;;;;;;;;;5030514;28;20455;-64
2023/12/29 02:13:52;;;;;;;18.03;3.73;;;;;;;;;;5029853;28;20045;-65
2023/12/29 02:16:37;;;;;;;27.40;5.17;;;;;;;;;;5029400;28;20045;-64
2023/12/29 02:19:09;;;;;;;16.73;3.43;;;;;;;;;;5029929;28;20068;-64
2023/12/29 02:21:35;;;;;;;20.53;4.17;;;;;;;;;;5029646;28;20045;-65
2023/12/29 02:24:01;;;;;;;14.13;3.67;;;;;;;;;;5029559;28;20045;-65
2023/12/29 02:26:30;;;;;;;12.43;3.03;;;;;;;;;;5029825;28;20048;-64
2023/12/29 02:29:00;;;;;;;19.17;4.03;;;;;;;;;;5029712;28;20076;-65
2023/12/29 02:31:28;;;;;;;10.90;3.37;;;;;;;;;;5029712;28;20041;-64
2023/12/29 02:33:54;;;;;;;18.03;4.03;;;;;;;;;;5028835;28;20461;-65
2023/12/29 02:36:22;;;;;;;13.97;3.30;;;;;;;;;;5030102;28;20045;-65
2023/12/29 02:38:49;;;;;;;12.37;3.03;;;;;;;;;;5029184;28;20049;-64
2023/12/29 02:41:15;;;;;;;17.67;3.23;;;;;;;;;;5029443;28;20099;-64
2023/12/29 02:43:41;;;;;;;19.37;3.63;;;;;;;;;;5028961;28;20061;-65
2023/12/29 02:46:07;;;;;;;20.33;3.27;;;;;;;;;;5029488;28;20034;-65
2023/12/29 02:48:33;;;;;;;17.03;3.63;;;;;;;;;;5028937;28;20053;-64
2023/12/29 02:50:59;;;;;;;23.63;5.37;;;;;;;;;;5029524;28;20053;-64
2023/12/29 02:53:25;;;;;;;20.07;3.70;;;;;;;;;;5029848;28;20053;-64
2023/12/29 02:55:51;;;;;;;14.67;4.10;;;;;;;;;;5029287;28;20049;-64
2023/12/29 02:58:17;;;;;;;20.20;3.93;;;;;;;;;;5028729;28;20049;-64
2023/12/29 03:00:43;;;;;;;17.97;4.47;;;;;;;;;;5028946;28;20052;-64
2023/12/29 03:03:09;;;;;;;20.00;4.43;;;;;;;;;;5029176;28;20080;-64
2023/12/29 03:05:35;;;;;;;16.57;3.40;;;;;;;;;;5029318;28;20072;-64
2023/12/29 03:08:01;;;;;;;17.67;4.03;;;;;;;;;;5029153;28;20060;-65
2023/12/29 03:10:27;;;;;;;20.20;3.27;;;;;;;;;;5028449;28;20052;-64
2023/12/29 03:12:53;;;;;;;20.93;3.50;;;;;;;;;;5029238;28;20049;-64
2023/12/29 03:15:19;;;;;;;15.13;3.47;;;;;;;;;;5027481;28;20120;-64
2023/12/29 03:17:45;;;;;;;13.87;3.13;;;;;;;;;;5028708;28;20041;-65
2023/12/29 03:20:12;;;;;;;18.50;3.37;;;;;;;;;;5028684;28;20042;-64
2023/12/29 03:22:38;;;;;;;15.13;3.60;;;;;;;;;;5029133;28;20385;-64
2023/12/29 03:25:05;;;;;;;19.37;3.93;;;;;;;;;;5028774;28;20053;-64
2023/12/29 03:27:31;;;;;;;21.30;4.00;;;;;;;;;;5028566;28;20530;-64
2023/12/29 03:29:57;;;;;;;14.50;4.13;;;;;;;;;;5028289;28;20268;-64
2023/12/29 03:32:23;;;;;;;13.40;3.37;;;;;;;;;;5028271;28;20045;-64
2023/12/29 03:34:49;;;;;;;13.87;2.83;;;;;;;;;;5028733;28;20050;-64
2023/12/29 03:37:15;;;;;;;16.03;3.53;;;;;;;;;;5028488;28;20085;-64
2023/12/29 03:39:41;;;;;;;12.17;2.93;;;;;;;;;;5028704;28;20046;-64
2023/12/29 03:42:07;;;;;;;13.27;4.80;;;;;;;;;;5027924;28;20045;-64
2023/12/29 03:44:33;;;;;;;15.40;4.47;;;;;;;;;;5028506;28;20061;-64
2023/12/29 03:46:59;;;;;;;13.40;3.10;;;;;;;;;;5027966;28;20075;-64
2023/12/29 03:49:25;;;;;;;18.77;5.20;;;;;;;;;;5027762;28;20049;-64
2023/12/29 03:51:51;;;;;;;19.80;4.50;;;;;;;;;;5028093;28;20269;-65
2023/12/29 03:54:19;;;;;;;20.70;4.17;;;;;;;;;;5027893;28;20057;-64
2023/12/29 03:56:45;;;;;;;11.10;3.10;;;;;;;;;;5028071;28;20058;-64
2023/12/29 03:59:11;;;;;;;16.07;3.50;;;;;;;;;;5028334;28;20045;-64
2023/12/29 04:01:37;;;;;;;20.67;3.80;;;;;;;;;;5027908;28;20334;-65
2023/12/29 04:04:03;;;;;;;21.87;5.03;;;;;;;;;;5028366;28;20411;-66
2023/12/29 04:06:30;;;;;;;27.03;5.40;;;;;;;;;;5028003;28;20100;-65
2023/12/29 04:08:56;;;;;;;18.57;4.07;;;;;;;;;;5027728;28;20056;-66
2023/12/29 04:11:22;;;;;;;27.93;5.70;;;;;;;;;;5028312;28;20068;-65
2023/12/29 04:13:48;;;;;;;34.80;5.60;;;;;;;;;;5028000;28;20057;-66
2023/12/29 04:16:15;;;;;;;27.73;5.90;;;;;;;;;;5028022;28;20046;-66
2023/12/29 04:18:41;;;;;;;24.63;5.23;;;;;;;;;;5028365;28;20530;-66
2023/12/29 04:21:09;;;;;;;29.03;6.50;;;;;;;;;;5027623;28;20049;-66
2023/12/29 04:23:35;;;;;;;24.07;6.00;;;;;;;;;;5027879;28;20519;-66
2023/12/29 04:26:01;;;;;;;26.10;5.33;;;;;;;;;;5028115;28;20403;-66
2023/12/29 04:28:27;;;;;;;23.63;6.67;;;;;;;;;;5027831;28;20050;-65
2023/12/29 04:30:53;;;;;;;28.20;4.80;;;;;;;;;;5028152;28;20448;-65
2023/12/29 04:33:19;;;;;;;32.17;5.23;;;;;;;;;;5027640;28;20088;-65
2023/12/29 04:35:45;;;;;;;26.73;4.87;;;;;;;;;;5028157;28;20049;-65
2023/12/29 04:38:11;;;;;;;21.67;3.97;;;;;;;;;;5028094;28;20091;-65
2023/12/29 04:40:38;;;;;;;25.97;4.80;;;;;;;;;;5027390;28;20119;-65
2023/12/29 04:43:04;;;;;;;19.67;4.53;;;;;;;;;;5027961;28;20081;-65
2023/12/29 04:45:30;;;;;;;26.60;4.37;;;;;;;;;;5027675;28;20053;-65
2023/12/29 04:47:56;;;;;;;20.93;4.40;;;;;;;;;;5027006;28;20099;-65
2023/12/29 04:50:22;;;;;;;25.20;4.50;;;;;;;;;;5028194;28;20077;-65
2023/12/29 04:52:48;;;;;;;18.93;4.07;;;;;;;;;;5027835;28;20064;-65
2023/12/29 04:55:14;;;;;;;28.77;5.03;;;;;;;;;;5027420;28;20049;-65
2023/12/29 04:57:41;;;;;;;19.93;3.93;;;;;;;;;;5027754;28;20045;-65
2023/12/29 05:00:07;;;;;;;29.10;6.10;;;;;;;;;;5027415;28;20048;-65
2023/12/29 05:02:33;;;;;;;26.03;5.03;;;;;;;;;;5030361;28;20488;-65
2023/12/29 05:04:59;;;;;;;33.07;6.07;;;;;;;;;;5031716;28;20045;-65
2023/12/29 05:07:25;;;;;;;20.63;5.20;;;;;;;;;;5031328;28;20049;-65
2023/12/29 05:09:51;;;;;;;21.60;4.10;;;;;;;;;;5030917;28;20132;-65
2023/12/29 05:12:18;;;;;;;28.10;4.70;;;;;;;;;;5030788;28;20053;-65
2023/12/29 05:14:44;;;;;;;28.00;5.57;;;;;;;;;;5031387;28;20450;-65
2023/12/29 05:17:10;;;;;;;22.50;3.90;;;;;;;;;;5031091;28;20061;-65
2023/12/29 05:19:36;;;;;;;30.80;5.47;;;;;;;;;;5031167;28;20041;-65
2023/12/29 05:22:02;;;;;;;25.00;4.23;;;;;;;;;;5030706;28;20053;-65
2023/12/29 05:24:28;;;;;;;24.93;4.50;;;;;;;;;;5030474;28;20411;-65
2023/12/29 05:26:54;;;;;;;24.20;4.63;;;;;;;;;;5031037;28;20050;-65
2023/12/29 05:29:20;;;;;;;27.93;4.73;;;;;;;;;;5031144;28;20549;-65
2023/12/29 05:31:46;;;;;;;40.40;7.13;;;;;;;;;;5030666;28;20425;-65
2023/12/29 05:34:12;;;;;;;30.77;5.23;;;;;;;;;;5031074;28;20268;-65
2023/12/29 05:36:38;;;;;;;25.50;5.27;;;;;;;;;;5030533;28;20048;-65
2023/12/29 05:39:04;;;;;;;28.63;4.90;;;;;;;;;;5030535;28;20041;-65
2023/12/29 05:41:31;;;;;;;25.73;6.00;;;;;;;;;;5029593;28;20076;-65
2023/12/29 05:43:57;;;;;;;31.10;4.13;;;;;;;;;;5030007;28;20053;-65
2023/12/29 05:46:24;;;;;;;36.23;6.07;;;;;;;;;;5030970;28;20056;-65
2023/12/29 05:48:52;;;;;;;31.23;5.80;;;;;;;;;;5030395;28;20045;-65
2023/12/29 05:51:18;;;;;;;33.43;5.57;;;;;;;;;;5030589;28;20045;-65
2023/12/29 05:53:44;;;;;;;20.43;4.40;;;;;;;;;;5030420;28;20053;-65
2023/12/29 05:56:12;;;;;;;37.77;6.93;;;;;;;;;;5029766;28;20183;-65
2023/12/29 05:58:38;;;;;;;29.10;5.23;;;;;;;;;;5030625;28;20087;-65
2023/12/29 06:01:05;;;;;;;27.40;4.77;;;;;;;;;;5030368;28;20049;-65
2023/12/29 06:03:31;;;;;;;26.43;5.17;;;;;;;;;;5030339;28;20525;-65
2023/12/29 06:05:57;;;;;;;34.07;7.13;;;;;;;;;;5030094;28;20379;-65
2023/12/29 06:08:23;;;;;;;30.03;6.73;;;;;;;;;;5029610;28;20049;-65
2023/12/29 06:10:49;;;;;;;31.17;6.00;;;;;;;;;;5030387;28;20053;-64
2023/12/29 06:13:15;;;;;;;27.80;5.17;;;;;;;;;;5029481;28;20057;-64
2023/12/29 06:15:41;;;;;;;33.00;6.60;;;;;;;;;;5030112;28;20053;-65
2023/12/29 06:18:07;;;;;;;27.03;5.83;;;;;;;;;;5029694;28;20187;-65
2023/12/29 06:20:33;;;;;;;28.03;5.70;;;;;;;;;;5028797;28;20056;-65
2023/12/29 06:23:00;;;;;;;36.57;7.70;;;;;;;;;;5029636;28;20041;-65
2023/12/29 06:25:26;;;;;;;29.37;5.23;;;;;;;;;;5029744;28;20045;-65
2023/12/29 06:27:52;;;;;;;33.70;6.67;;;;;;;;;;5030012;28;20052;-65
2023/12/29 06:30:18;;;;;;;34.50;6.27;;;;;;;;;;5029064;28;20053;-65
2023/12/29 06:32:44;;;;;;;26.27;5.23;;;;;;;;;;5030009;28;20049;-65
2023/12/29 06:35:10;;;;;;;29.07;6.03;;;;;;;;;;5029802;28;20071;-65
2023/12/29 06:37:38;;;;;;;34.30;6.43;;;;;;;;;;5028986;28;20107;-64
2023/12/29 06:40:04;;;;;;;34.53;6.33;;;;;;;;;;5029525;28;20045;-65
2023/12/29 06:42:30;;;;;;;38.13;6.17;;;;;;;;;;5029661;28;20049;-65
2023/12/29 06:44:56;;;;;;;42.47;7.63;;;;;;;;;;5029269;28;20074;-64
2023/12/29 06:47:22;;;;;;;31.60;6.03;;;;;;;;;;5029362;28;20049;-65
2023/12/29 06:49:49;;;;;;;33.33;5.97;;;;;;;;;;5028957;28;20272;-65
2023/12/29 06:52:16;;;;;;;29.03;6.37;;;;;;;;;;5029253;28;20128;-65
2023/12/29 06:54:42;;;;;;;41.63;9.43;;;;;;;;;;5029448;28;20041;-65
2023/12/29 06:57:08;;;;;;;41.70;7.83;;;;;;;;;;5029334;28;20053;-66
2023/12/29 06:59:34;;;;;;;33.73;6.87;;;;;;;;;;5028993;28;20408;-65
2023/12/29 07:02:00;;;;;;;34.30;6.73;;;;;;;;;;5029214;28;20487;-66
2023/12/29 07:04:26;;;;;;;41.20;7.20;;;;;;;;;;5029131;28;20104;-66
2023/12/29 07:06:52;;;;;;;38.90;6.87;;;;;;;;;;5028796;28;20037;-65
2023/12/29 07:09:18;;;;;;;36.63;6.87;;;;;;;;;;5029194;28;20049;-65
2023/12/29 07:11:50;;;;;;;35.23;6.90;;;;;;;;;;5029320;28;20057;-65
2023/12/29 07:14:17;;;;;;;41.93;6.40;;;;;;;;;;5028653;28;20053;-65
2023/12/29 07:16:43;;;;;;;43.57;7.73;;;;;;;;;;5029262;28;20060;-65
2023/12/29 07:19:09;;;;;;;37.97;6.40;;;;;;;;;;5029008;28;20054;-65
2023/12/29 07:21:35;;;;;;;37.73;6.17;;;;;;;;;;5028899;28;20065;-65
2023/12/29 07:24:01;;;;;;;27.70;5.97;;;;;;;;;;5028104;28;20041;-65
2023/12/29 07:26:27;;;;;;;37.87;6.57;;;;;;;;;;5028319;28;20045;-65
2023/12/29 07:28:54;;;;;;;27.47;6.33;;;;;;;;;;5028375;28;20121;-66
2023/12/29 07:31:23;;;;;;;36.43;7.20;;;;;;;;;;5028427;28;20057;-66
2023/12/29 07:33:49;;;;;;;36.17;6.33;;;;;;;;;;5027788;28;20056;-65
2023/12/29 07:36:15;;;;;;;29.47;6.90;;;;;;;;;;5028612;28;20053;-65
2023/12/29 07:38:42;;;;;;;54.20;9.27;;;;;;;;;;5028621;28;20095;-65
2023/12/29 07:41:08;;;;;;;45.10;7.00;;;;;;;;;;5028428;28;20045;-65
2023/12/29 07:43:35;;;;;;;36.83;6.67;;;;;;;;;;5027787;28;20091;-65
2023/12/29 07:46:02;;;;;;;31.27;6.67;;;;;;;;;;5028359;28;20045;-64
2023/12/29 07:48:28;;;;;;;29.67;6.10;;;;;;;;;;5028675;28;20068;-64
2023/12/29 07:50:54;;;;;;;29.57;5.73;;;;;;;;;;5028739;28;20084;-64
2023/12/29 07:53:20;;;;;;;43.33;6.73;;;;;;;;;;5027979;28;20045;-64
2023/12/29 07:55:49;;;;;;;27.80;4.50;;;;;;;;;;5028175;28;20544;-64
2023/12/29 07:58:15;;;;;;;33.47;6.53;;;;;;;;;;5028349;28;20519;-64
2023/12/29 08:00:41;;;;;;;34.23;5.57;;;;;;;;;;5028039;28;20053;-64
2023/12/29 08:03:07;;;;;;;33.43;5.37;;;;;;;;;;5027209;28;20053;-65
2023/12/29 08:05:34;;;;;;;27.23;6.07;;;;;;;;;;5028299;28;20100;-64
2023/12/29 08:08:00;;;;;;;25.73;6.47;;;;;;;;;;5028337;28;20049;-65
2023/12/29 08:10:26;;;;;;;31.27;6.83;;;;;;;;;;5028193;28;20103;-64
2023/12/29 08:12:52;;;;;;;25.13;5.33;;;;;;;;;;5027529;28;20048;-65
2023/12/29 08:15:18;;;;;;;26.77;5.37;;;;;;;;;;5028072;28;20103;-65
2023/12/29 08:17:44;;;;;;;25.97;5.07;;;;;;;;;;5026800;28;20033;-65
2023/12/29 08:20:10;;;;;;;33.43;6.60;;;;;;;;;;5027837;28;20156;-64
2023/12/29 08:22:37;;;;;;;23.97;5.33;;;;;;;;;;5028105;28;20049;-65
2023/12/29 08:25:03;;;;;;;26.90;4.90;;;;;;;;;;5027596;28;20058;-65
2023/12/29 08:27:29;;;;;;;27.90;5.33;;;;;;;;;;5027766;28;20045;-65
2023/12/29 08:29:56;;;;;;;41.57;7.67;;;;;;;;;;5027449;28;20096;-65
2023/12/29 08:32:22;;;;;;;44.27;6.70;;;;;;;;;;5027781;28;20037;-67
2023/12/29 08:34:48;;;;;;;27.30;4.37;;;;;;;;;;5027807;28;20077;-66
2023/12/29 08:37:19;;;;;;;28.30;4.63;;;;;;;;;;5030155;28;20049;-66
2023/12/29 08:39:46;;;;;;;32.37;4.47;;;;;;;;;;5030558;28;20060;-66
2023/12/29 08:42:12;;;;;;;28.10;4.60;;;;;;;;;;5031533;28;20063;-65
2023/12/29 08:44:38;;;;;;;22.60;4.97;;;;;;;;;;5031549;28;20053;-65
2023/12/29 08:47:07;;;;;;;21.37;5.37;;;;;;;;;;5031462;28;20052;-65
2023/12/29 08:49:34;;;;;;;24.17;4.67;;;;;;;;;;5031110;28;20559;-66
2023/12/29 08:52:00;;;;;;;24.80;4.40;;;;;;;;;;5031167;28;20451;-65
2023/12/29 08:54:27;;;;;;;28.83;5.20;;;;;;;;;;5031596;28;20088;-65
2023/12/29 08:56:53;;;;;;;23.17;4.37;;;;;;;;;;5031256;28;20555;-66
2023/12/29 08:59:19;;;;;;;18.67;3.77;;;;;;;;;;5030190;28;20167;-65
2023/12/29 09:01:45;;;;;;;23.07;4.87;;;;;;;;;;5031348;28;20049;-65
2023/12/29 09:04:11;;;;;;;20.63;3.90;;;;;;;;;;5031576;28;20045;-65
2023/12/29 09:06:37;;;;;;;16.03;3.80;;;;;;;;;;5029944;28;20099;-65
2023/12/29 09:09:03;;;;;;;21.53;4.00;;;;;;;;;;5030910;28;20431;-65
2023/12/29 09:11:29;;;;;;;17.90;4.93;;;;;;;;;;5030723;28;20107;-66
2023/12/29 09:13:55;;;;;;;17.90;3.87;;;;;;;;;;5030989;28;20495;-66
2023/12/29 09:16:21;;;;;;;23.00;4.97;;;;;;;;;;5031194;28;20073;-65
2023/12/29 09:18:47;;;;;;;15.53;3.53;;;;;;;;;;5031231;28;20596;-66
2023/12/29 09:21:13;;;;;;;19.30;3.90;;;;;;;;;;5030711;28;20458;-65
2023/12/29 09:23:40;;;;;;;21.00;3.60;;;;;;;;;;5030937;28;20042;-65
2023/12/29 09:26:06;;;;;;;19.93;3.77;;;;;;;;;;5030702;28;20049;-65
2023/12/29 09:28:33;;;;;;;16.67;3.63;;;;;;;;;;5030653;28;20051;-65
2023/12/29 09:31:00;;;;;;;26.17;4.17;;;;;;;;;;5030739;28;20492;-65
2023/12/29 09:33:26;;;;;;;16.07;4.67;;;;;;;;;;5030276;28;20053;-66
2023/12/29 09:35:52;;;;;;;14.20;4.33;;;;;;;;;;5030424;28;20495;-66
2023/12/29 09:38:19;;;;;;;17.07;3.53;;;;;;;;;;5030842;28;20037;-65
2023/12/29 09:40:45;;;;;;;17.47;3.30;;;;;;;;;;5029804;28;20049;-65
2023/12/29 09:43:11;;;;;;;15.10;3.27;;;;;;;;;;5029968;28;20049;-65
2023/12/29 09:45:38;;;;;;;9.60;2.90;;;;;;;;;;5030240;28;20068;-65
2023/12/29 09:48:08;;;;;;;10.43;2.73;;;;;;;;;;5029321;28;20133;-66
2023/12/29 09:50:35;;;;;;;15.17;2.97;;;;;;;;;;5030468;28;20053;-65
2023/12/29 09:53:02;;;;;;;15.07;3.83;;;;;;;;;;5029942;28;20057;-65
2023/12/29 09:55:28;;;;;;;15.23;3.00;;;;;;;;;;5030157;28;20135;-65
2023/12/29 09:57:55;;;;;;;16.57;3.47;;;;;;;;;;5029939;28;20519;-65
2023/12/29 10:00:21;;;;;;;14.23;2.83;;;;;;;;;;5030146;28;20049;-65
2023/12/29 10:02:48;;;;;;;9.03;2.73;;;;;;;;;;5029804;28;20135;-65
2023/12/29 10:05:15;;;;;;;10.70;2.87;;;;;;;;;;5030181;28;20081;-66
2023/12/29 10:07:43;;;;;;;12.70;2.43;;;;;;;;;;5029775;28;20057;-66
2023/12/29 10:10:13;;;;;;;14.37;2.43;;;;;;;;;;5029873;28;20100;-66
2023/12/29 10:12:39;;;;;;;14.70;3.17;;;;;;;;;;5029951;28;20400;-66
2023/12/29 10:15:08;;;;;;;13.00;1.97;;;;;;;;;;5029708;28;20049;-66
2023/12/29 10:17:53;;;;;;;13.17;1.87;;;;;;;;;;5029776;28;20411;-67
2023/12/29 10:20:42;;;;;;;7.93;1.40;;;;;;;;;;5030159;28;20055;-66
2023/12/29 10:23:27;;;;;;;13.60;1.70;;;;;;;;;;5028883;28;20058;-67
2023/12/29 10:25:53;;;;;;;9.03;1.20;;;;;;;;;;5029490;28;20099;-66
2023/12/29 10:28:19;;;;;;;9.77;1.63;;;;;;;;;;5029330;28;20051;-66
2023/12/29 10:30:45;;;;;;;7.30;1.67;;;;;;;;;;5029430;28;20056;-66
2023/12/29 10:33:21;;;;;;;6.40;1.43;;;;;;;;;;5030108;28;20083;-66
2023/12/29 10:35:58;;;;;;;9.73;1.90;;;;;;;;;;5029021;28;20049;-66
2023/12/29 10:38:24;;;;;;;12.13;2.00;;;;;;;;;;5029391;28;20049;-66
2023/12/29 10:40:50;;;;;;;8.40;2.10;;;;;;;;;;5029180;28;20054;-65
2023/12/29 10:43:22;;;;;;;9.07;1.90;;;;;;;;;;5029121;28;20037;-66
2023/12/29 10:45:48;;;;;;;10.53;3.07;;;;;;;;;;5029522;28;20085;-66
2023/12/29 10:48:24;;;;;;;8.83;2.23;;;;;;;;;;5029467;28;20084;-65
2023/12/29 10:50:50;;;;;;;9.47;2.00;;;;;;;;;;5029427;28;20085;-65
2023/12/29 10:53:17;;;;;;;10.77;2.77;;;;;;;;;;5028837;28;20111;-65
2023/12/29 10:55:43;;;;;;;8.63;2.00;;;;;;;;;;5028952;28;20045;-65
2023/12/29 10:58:09;;;;;;;16.23;3.70;;;;;;;;;;5028843;28;20557;-66
2023/12/29 11:00:35;;;;;;;12.90;3.10;;;;;;;;;;5029452;28;20458;-65
2023/12/29 11:03:01;;;;;;;11.27;3.43;;;;;;;;;;5029156;28;20045;-65
2023/12/29 11:05:28;;;;;;;14.37;2.60;;;;;;;;;;5029099;28;20052;-65
2023/12/29 11:07:54;;;;;;;18.53;2.90;;;;;;;;;;5028316;28;20046;-65
2023/12/29 11:10:21;;;;;;;22.07;3.00;;;;;;;;;;5028999;28;20044;-65
2023/12/29 11:12:48;;;;;;;20.30;3.93;;;;;;;;;;5028486;28;20052;-65
2023/12/29 11:15:14;;;;;;;20.53;4.17;;;;;;;;;;5028483;28;20447;-65
2023/12/29 11:17:49;;;;;;;18.40;3.63;;;;;;;;;;5029011;28;20034;-65
2023/12/29 11:20:16;;;;;;;17.90;3.40;;;;;;;;;;5028691;28;20061;-65
2023/12/29 11:22:43;;;;;;;15.50;3.27;;;;;;;;;;5028497;28;20124;-65
2023/12/29 11:25:09;;;;;;;27.70;3.80;;;;;;;;;;5028196;28;20110;-65
2023/12/29 11:27:35;;;;;;;18.40;3.53;;;;;;;;;;5028648;28;20104;-66
2023/12/29 11:30:04;;;;;;;20.20;3.77;;;;;;;;;;5028502;28;20132;-65
2023/12/29 11:32:37;;;;;;;18.97;3.83;;;;;;;;;;5028595;28;20053;-65
2023/12/29 11:35:11;;;;;;;16.33;2.70;;;;;;;;;;5028432;28;20106;-66
2023/12/29 11:37:37;;;;;;;;;;;;;;;;;;5028746;28;20049;-65
2023/12/29 11:40:35;;;;;;;19.17;4.07;;;;;;;;;;5028326;28;19921;-66
2023/12/29 11:43:03;;;;;;;20.80;4.00;;;;;;;;;;5026445;28;20068;-65
2023/12/29 11:45:36;;;;;;;24.83;4.27;;;;;;;;;;5027836;28;20057;-65
2023/12/29 11:48:03;;;;;;;31.15;4.45;;;;;;;;;;5028165;28;20563;-65
2023/12/29 11:50:33;;;;;;;25.30;3.63;;;;;;;;;;5028418;28;20558;-65
2023/12/29 11:52:59;;;;;;;24.67;3.43;;;;;;;;;;5028251;28;20543;-65
2023/12/29 11:55:35;;;;;;;19.10;3.33;;;;;;;;;;5028103;28;20056;-65
2023/12/29 11:58:04;;;;;;;24.10;5.87;;;;;;;;;;5027897;28;20045;-65
2023/12/29 12:00:45;;;;;;;21.43;4.47;;;;;;;;;;5027589;28;20093;-65
2023/12/29 12:03:19;;;;;;;32.47;4.90;;;;;;;;;;5028254;28;20080;-65
2023/12/29 12:05:49;;;;;;;23.13;3.17;;;;;;;;;;5027870;28;20478;-65
2023/12/29 12:08:29;;;;;;;24.10;4.37;;;;;;;;;;5028299;28;20053;-65
2023/12/29 12:10:56;;;;;;;14.40;2.63;;;;;;;;;;5027025;28;20049;-65
2023/12/29 12:13:41;;;;;;;19.37;4.83;;;;;;;;;;5027802;28;20045;-65
2023/12/29 12:16:07;;;;;;;14.67;3.27;;;;;;;;;;5028006;28;20046;-65
2023/12/29 12:18:33;;;;;;;18.20;3.30;;;;;;;;;;5028266;28;20076;-64
2023/12/29 12:21:00;;;;;;;12.23;2.63;;;;;;;;;;5027379;28;20579;-65
2023/12/29 12:23:27;;;;;;;20.20;3.17;;;;;;;;;;5027799;28;20077;-63
2023/12/29 12:26:01;;;;;;;18.93;3.30;;;;;;;;;;5027805;28;20041;-64
2023/12/29 12:28:27;;;;;;;13.73;2.97;;;;;;;;;;5027326;28;20052;-64
2023/12/29 12:30:53;;;;;;;17.77;3.63;;;;;;;;;;5027559;28;20051;-64
2023/12/29 12:33:19;;;;;;;17.60;3.63;;;;;;;;;;5027495;28;20530;-64
2023/12/29 12:35:46;;;;;;;19.63;3.30;;;;;;;;;;5027714;28;20141;-64
2023/12/29 12:38:21;;;;;;;16.57;3.87;;;;;;;;;;5027642;28;20657;-63
2023/12/29 12:40:47;;;;;;;14.43;2.93;;;;;;;;;;5026868;28;20516;-64
2023/12/29 12:43:16;;;;;;;16.57;2.87;;;;;;;;;;5027085;28;20484;-64
2023/12/29 12:45:43;;;;;;;13.63;2.80;;;;;;;;;;5027385;28;20062;-64
2023/12/29 12:48:21;;;;;;;20.30;3.83;;;;;;;;;;5028135;28;20053;-64
2023/12/29 12:50:48;;;;;;;13.40;2.80;;;;;;;;;;5027032;28;20136;-64
2023/12/29 12:53:20;;;;;;;16.33;2.37;;;;;;;;;;5027740;28;20054;-64
2023/12/29 12:55:47;;;;;;;14.13;3.27;;;;;;;;;;5027291;28;20052;-64
2023/12/29 12:58:14;;;;;;;12.00;3.40;;;;;;;;;;5027682;28;20095;-63
2023/12/29 13:00:41;;;;;;;12.33;3.13;;;;;;;;;;5027057;28;20064;-64
2023/12/29 13:03:07;;;;;;;19.90;3.70;;;;;;;;;;5027633;28;20484;-64
2023/12/29 13:05:33;;;;;;;12.43;2.40;;;;;;;;;;5027399;28;20578;-64
2023/12/29 13:07:59;;;;;;;17.37;3.87;;;;;;;;;;5027368;28;20522;-64
2023/12/29 13:10:25;;;;;;;18.40;4.03;;;;;;;;;;5027172;28;20132;-64
2023/12/29 13:12:54;;;;;;;13.90;2.40;;;;;;;;;;5027126;28;20073;-64
2023/12/29 13:15:20;;;;;;;21.57;4.70;;;;;;;;;;5027480;28;20064;-64
2023/12/29 13:17:53;;;;;;;16.40;3.33;;;;;;;;;;5027365;28;20416;-64
2023/12/29 13:20:19;;;;;;;14.95;2.55;;;;;;;;;;5026761;28;20077;-64
2023/12/29 13:22:56;;;;;;;15.90;3.10;;;;;;;;;;5027407;28;20056;-64
2023/12/29 13:25:25;;;;;;;14.57;3.17;;;;;;;;;;5030908;28;20044;-64
2023/12/29 13:27:52;;;;;;;16.10;3.00;;;;;;;;;;5031019;28;20073;-64
2023/12/29 13:30:20;;;;;;;13.77;2.20;;;;;;;;;;5030804;28;20065;-64
2023/12/29 13:32:46;;;;;;;15.30;2.97;;;;;;;;;;5030763;28;20069;-64
2023/12/29 13:35:19;;;;;;;16.93;3.43;;;;;;;;;;5030542;28;20052;-64
2023/12/29 13:37:48;;;;;;;10.32;2.65;;;;;;;;;;5030036;28;20099;-64
2023/12/29 13:40:15;;;;;;;22.50;3.30;;;;;;;;;;5030740;28;20099;-64
2023/12/29 13:42:42;;;;;;;17.60;2.40;;;;;;;;;;5030381;28;20052;-64
2023/12/29 13:45:09;;;;;;;11.67;3.00;;;;;;;;;;5029913;28;20115;-64
2023/12/29 13:47:37;;;;;;;15.83;2.90;;;;;;;;;;5030640;28;20053;-64
2023/12/29 13:50:03;;;;;;;15.67;2.20;;;;;;;;;;5030240;28;20617;-64
2023/12/29 13:52:29;;;;;;;13.97;2.33;;;;;;;;;;5030558;28;20049;-64
2023/12/29 13:54:55;;;;;;;14.83;2.53;;;;;;;;;;5029756;28;20398;-64
2023/12/29 13:57:34;;;;;;;16.37;3.07;;;;;;;;;;5030311;28;20041;-64
2023/12/29 14:00:16;;;;;;;9.90;2.00;;;;;;;;;;5030191;28;20046;-64
2023/12/29 14:02:45;;;;;;;16.67;2.53;;;;;;;;;;5030576;28;20045;-64
2023/12/29 14:05:12;;;;;;;18.60;3.67;;;;;;;;;;5030275;28;20049;-64
2023/12/29 14:07:44;;;;;;;12.90;2.90;;;;;;;;;;5029679;28;20466;-64
2023/12/29 14:10:10;;;;;;;19.77;4.00;;;;;;;;;;5029511;28;20206;-64
2023/12/29 14:12:36;;;;;;;15.50;2.80;;;;;;;;;;5029898;28;20500;-64
2023/12/29 14:15:06;;;;;;;19.70;4.07;;;;;;;;;;5029820;28;20045;-64
2023/12/29 14:17:33;;;;;;;14.40;2.10;;;;;;;;;;5029663;28;20038;-64
2023/12/29 14:20:04;;;;;;;15.90;2.47;;;;;;;;;;5028074;28;20458;-65
2023/12/29 14:22:30;;;;;;;10.73;3.10;;;;;;;;;;5029936;28;20057;-64
2023/12/29 14:25:14;;;;;;;20.97;2.67;;;;;;;;;;5029898;28;20037;-64
2023/12/29 14:27:41;;;;;;;12.43;2.43;;;;;;;;;;5029538;28;20048;-64
2023/12/29 14:30:18;;;;;;;15.60;2.70;;;;;;;;;;5030069;28;20111;-64
2023/12/29 14:32:44;;;;;;;22.33;4.50;;;;;;;;;;5029570;28;20041;-64